sensor_id;sensor_type;location;lat;lon;timestamp;P1;durP1;ratioP1;P2;durP2;ratioP2
10831;SDS011;5469;48.574;8.768;2023-03-01T00:01:01;0.57;;;0.57;;
10831;SDS011;5469;48.574;8.768;2023-03-01T00:03:38;1.67;;;0.93;;
10831;SDS011;5469;48.574;8.768;2023-03-01T00:06:15;1.30;;;1.10;;
10831;SDS011;5469;48.574;8.768;2023-03-01T00:08:51;3.40;;;1.50;;
10831;SDS011;5469;48.574;8.768;2023-03-01T00:11:26;1.73;;;1.57;;
10831;SDS011;5469;48.574;8.768;2023-03-01T00:14:03;5.47;;;1.20;;
10831;SDS011;5469;48.574;8.768;2023-03-01T00:16:39;1.20;;;1.10;;
10831;SDS011;5469;48.574;8.768;2023-03-01T00:19:16;0.70;;;0.70;;
10831;SDS011;5469;48.574;8.768;2023-03-01T00:21:54;1.97;;;1.10;;
10831;SDS011;5469;48.574;8.768;2023-03-01T00:24:30;0.87;;;0.87;;
10831;SDS011;5469;48.574;8.768;2023-03-01T00:27:07;1.70;;;1.60;;
10831;SDS011;5469;48.574;8.768;2023-03-01T00:29:42;1.73;;;0.80;;
10831;SDS011;5469;48.574;8.768;2023-03-01T00:32:17;3.27;;;1.93;;
10831;SDS011;5469;48.574;8.768;2023-03-01T00:34:52;1.10;;;1.07;;
10831;SDS011;5469;48.574;8.768;2023-03-01T00:37:29;1.87;;;1.30;;
10831;SDS011;5469;48.574;8.768;2023-03-01T00:40:05;0.43;;;0.43;;
10831;SDS011;5469;48.574;8.768;2023-03-01T00:42:42;1.40;;;1.30;;
10831;SDS011;5469;48.574;8.768;2023-03-01T00:45:17;4.63;;;2.50;;
10831;SDS011;5469;48.574;8.768;2023-03-01T00:47:53;2.40;;;1.90;;
10831;SDS011;5469;48.574;8.768;2023-03-01T00:50:27;1.80;;;1.30;;
10831;SDS011;5469;48.574;8.768;2023-03-01T00:53:05;1.20;;;1.20;;
10831;SDS011;5469;48.574;8.768;2023-03-01T00:55:40;2.13;;;1.93;;
10831;SDS011;5469;48.574;8.768;2023-03-01T00:58:15;0.40;;;0.40;;
10831;SDS011;5469;48.574;8.768;2023-03-01T01:00:50;1.47;;;1.30;;
10831;SDS011;5469;48.574;8.768;2023-03-01T01:03:25;0.70;;;0.70;;
10831;SDS011;5469;48.574;8.768;2023-03-01T01:06:00;1.73;;;1.33;;
10831;SDS011;5469;48.574;8.768;2023-03-01T01:08:42;1.43;;;1.33;;
10831;SDS011;5469;48.574;8.768;2023-03-01T01:11:17;0.80;;;0.80;;
10831;SDS011;5469;48.574;8.768;2023-03-01T01:13:53;5.20;;;2.20;;
10831;SDS011;5469;48.574;8.768;2023-03-01T01:16:30;1.17;;;1.00;;
10831;SDS011;5469;48.574;8.768;2023-03-01T01:19:05;6.17;;;1.50;;
10831;SDS011;5469;48.574;8.768;2023-03-01T01:21:42;1.73;;;1.13;;
10831;SDS011;5469;48.574;8.768;2023-03-01T01:24:19;3.43;;;1.90;;
10831;SDS011;5469;48.574;8.768;2023-03-01T01:26:54;1.47;;;1.03;;
10831;SDS011;5469;48.574;8.768;2023-03-01T01:29:29;3.73;;;1.50;;
10831;SDS011;5469;48.574;8.768;2023-03-01T01:32:05;2.33;;;1.40;;
10831;SDS011;5469;48.574;8.768;2023-03-01T01:34:40;1.83;;;0.87;;
10831;SDS011;5469;48.574;8.768;2023-03-01T01:37:15;1.80;;;1.23;;
10831;SDS011;5469;48.574;8.768;2023-03-01T01:39:52;2.33;;;2.07;;
10831;SDS011;5469;48.574;8.768;2023-03-01T01:42:27;2.63;;;1.37;;
10831;SDS011;5469;48.574;8.768;2023-03-01T01:48:14;2.57;;;1.87;;
10831;SDS011;5469;48.574;8.768;2023-03-01T01:50:57;0.90;;;0.90;;
10831;SDS011;5469;48.574;8.768;2023-03-01T01:53:33;2.03;;;1.17;;
10831;SDS011;5469;48.574;8.768;2023-03-01T01:56:11;0.63;;;0.63;;
10831;SDS011;5469;48.574;8.768;2023-03-01T01:58:48;1.63;;;1.40;;
10831;SDS011;5469;48.574;8.768;2023-03-01T02:01:24;5.30;;;2.60;;
10831;SDS011;5469;48.574;8.768;2023-03-01T02:04:00;2.17;;;1.50;;
10831;SDS011;5469;48.574;8.768;2023-03-01T02:06:38;4.07;;;1.83;;
10831;SDS011;5469;48.574;8.768;2023-03-01T02:09:17;4.40;;;1.63;;
10831;SDS011;5469;48.574;8.768;2023-03-01T02:11:56;1.73;;;1.53;;
10831;SDS011;5469;48.574;8.768;2023-03-01T02:14:32;2.87;;;1.10;;
10831;SDS011;5469;48.574;8.768;2023-03-01T02:17:07;1.47;;;1.37;;
10831;SDS011;5469;48.574;8.768;2023-03-01T02:19:47;1.30;;;0.90;;
10831;SDS011;5469;48.574;8.768;2023-03-01T02:22:30;2.73;;;1.43;;
10831;SDS011;5469;48.574;8.768;2023-03-01T02:25:09;1.43;;;1.03;;
10831;SDS011;5469;48.574;8.768;2023-03-01T02:27:53;4.23;;;2.43;;
10831;SDS011;5469;48.574;8.768;2023-03-01T02:30:36;1.63;;;0.97;;
10831;SDS011;5469;48.574;8.768;2023-03-01T02:33:32;3.77;;;2.50;;
10831;SDS011;5469;48.574;8.768;2023-03-01T02:36:11;3.23;;;2.37;;
10831;SDS011;5469;48.574;8.768;2023-03-01T02:38:52;2.10;;;1.53;;
10831;SDS011;5469;48.574;8.768;2023-03-01T02:41:30;3.20;;;1.73;;
10831;SDS011;5469;48.574;8.768;2023-03-01T02:44:08;2.10;;;1.90;;
10831;SDS011;5469;48.574;8.768;2023-03-01T02:46:45;4.50;;;1.17;;
10831;SDS011;5469;48.574;8.768;2023-03-01T02:49:23;1.43;;;1.27;;
10831;SDS011;5469;48.574;8.768;2023-03-01T02:55:07;0.73;;;0.73;;
10831;SDS011;5469;48.574;8.768;2023-03-01T02:57:45;6.40;;;1.90;;
10831;SDS011;5469;48.574;8.768;2023-03-01T03:00:23;3.37;;;1.73;;
10831;SDS011;5469;48.574;8.768;2023-03-01T03:03:03;1.53;;;1.47;;
10831;SDS011;5469;48.574;8.768;2023-03-01T03:05:39;2.57;;;1.43;;
10831;SDS011;5469;48.574;8.768;2023-03-01T03:08:15;2.80;;;2.17;;
10831;SDS011;5469;48.574;8.768;2023-03-01T03:10:55;1.40;;;1.20;;
10831;SDS011;5469;48.574;8.768;2023-03-01T03:13:30;0.83;;;0.83;;
10831;SDS011;5469;48.574;8.768;2023-03-01T03:16:06;0.97;;;0.87;;
10831;SDS011;5469;48.574;8.768;2023-03-01T03:18:43;0.80;;;0.80;;
10831;SDS011;5469;48.574;8.768;2023-03-01T03:21:18;0.83;;;0.83;;
10831;SDS011;5469;48.574;8.768;2023-03-01T03:23:53;0.97;;;0.97;;
10831;SDS011;5469;48.574;8.768;2023-03-01T03:26:28;1.73;;;1.53;;
10831;SDS011;5469;48.574;8.768;2023-03-01T03:29:04;1.87;;;1.70;;
10831;SDS011;5469;48.574;8.768;2023-03-01T03:31:39;2.97;;;2.30;;
10831;SDS011;5469;48.574;8.768;2023-03-01T03:34:15;1.03;;;1.00;;
10831;SDS011;5469;48.574;8.768;2023-03-01T03:36:52;0.97;;;0.73;;
10831;SDS011;5469;48.574;8.768;2023-03-01T03:39:31;1.27;;;1.20;;
10831;SDS011;5469;48.574;8.768;2023-03-01T03:42:06;1.97;;;1.83;;
10831;SDS011;5469;48.574;8.768;2023-03-01T03:44:41;2.40;;;2.20;;
10831;SDS011;5469;48.574;8.768;2023-03-01T03:47:16;3.77;;;1.83;;
10831;SDS011;5469;48.574;8.768;2023-03-01T03:49:52;5.30;;;1.37;;
10831;SDS011;5469;48.574;8.768;2023-03-01T03:52:27;1.87;;;1.23;;
10831;SDS011;5469;48.574;8.768;2023-03-01T03:55:03;3.07;;;1.10;;
10831;SDS011;5469;48.574;8.768;2023-03-01T03:57:42;2.53;;;1.20;;
10831;SDS011;5469;48.574;8.768;2023-03-01T04:00:23;1.70;;;1.27;;
10831;SDS011;5469;48.574;8.768;2023-03-01T04:02:58;3.70;;;1.50;;
10831;SDS011;5469;48.574;8.768;2023-03-01T04:05:36;1.67;;;1.40;;
10831;SDS011;5469;48.574;8.768;2023-03-01T04:08:12;1.83;;;1.40;;
10831;SDS011;5469;48.574;8.768;2023-03-01T04:10:49;1.63;;;1.53;;
10831;SDS011;5469;48.574;8.768;2023-03-01T04:13:29;1.67;;;1.17;;
10831;SDS011;5469;48.574;8.768;2023-03-01T04:16:04;1.70;;;1.60;;
10831;SDS011;5469;48.574;8.768;2023-03-01T04:18:40;3.53;;;1.60;;
10831;SDS011;5469;48.574;8.768;2023-03-01T04:21:16;1.57;;;1.30;;
10831;SDS011;5469;48.574;8.768;2023-03-01T04:23:52;6.67;;;2.10;;
10831;SDS011;5469;48.574;8.768;2023-03-01T04:26:27;3.53;;;1.93;;
10831;SDS011;5469;48.574;8.768;2023-03-01T04:29:02;2.53;;;1.77;;
10831;SDS011;5469;48.574;8.768;2023-03-01T04:31:37;1.77;;;1.67;;
10831;SDS011;5469;48.574;8.768;2023-03-01T04:34:12;1.90;;;1.80;;
10831;SDS011;5469;48.574;8.768;2023-03-01T04:36:48;2.57;;;1.97;;
10831;SDS011;5469;48.574;8.768;2023-03-01T04:39:23;2.53;;;2.37;;
10831;SDS011;5469;48.574;8.768;2023-03-01T04:41:58;0.90;;;0.90;;
10831;SDS011;5469;48.574;8.768;2023-03-01T04:44:33;4.30;;;2.07;;
10831;SDS011;5469;48.574;8.768;2023-03-01T04:47:07;3.47;;;2.50;;
10831;SDS011;5469;48.574;8.768;2023-03-01T04:49:42;4.33;;;2.23;;
10831;SDS011;5469;48.574;8.768;2023-03-01T04:52:19;1.23;;;1.07;;
10831;SDS011;5469;48.574;8.768;2023-03-01T04:54:55;3.33;;;2.10;;
10831;SDS011;5469;48.574;8.768;2023-03-01T04:57:30;3.90;;;1.73;;
10831;SDS011;5469;48.574;8.768;2023-03-01T05:00:06;3.23;;;1.27;;
10831;SDS011;5469;48.574;8.768;2023-03-01T05:02:53;3.67;;;2.47;;
10831;SDS011;5469;48.574;8.768;2023-03-01T05:05:30;1.83;;;1.67;;
10831;SDS011;5469;48.574;8.768;2023-03-01T05:08:09;2.70;;;1.73;;
10831;SDS011;5469;48.574;8.768;2023-03-01T05:10:49;2.63;;;1.63;;
10831;SDS011;5469;48.574;8.768;2023-03-01T05:13:26;4.37;;;2.67;;
10831;SDS011;5469;48.574;8.768;2023-03-01T05:16:01;2.80;;;2.60;;
10831;SDS011;5469;48.574;8.768;2023-03-01T05:18:37;1.50;;;1.40;;
10831;SDS011;5469;48.574;8.768;2023-03-01T05:21:14;3.87;;;2.30;;
10831;SDS011;5469;48.574;8.768;2023-03-01T05:23:52;4.27;;;1.77;;
10831;SDS011;5469;48.574;8.768;2023-03-01T05:26:27;1.40;;;1.33;;
10831;SDS011;5469;48.574;8.768;2023-03-01T05:29:02;1.57;;;1.27;;
10831;SDS011;5469;48.574;8.768;2023-03-01T05:31:37;5.03;;;1.50;;
10831;SDS011;5469;48.574;8.768;2023-03-01T05:34:12;3.00;;;1.73;;
10831;SDS011;5469;48.574;8.768;2023-03-01T05:36:48;2.57;;;1.50;;
10831;SDS011;5469;48.574;8.768;2023-03-01T05:39:26;1.67;;;1.33;;
10831;SDS011;5469;48.574;8.768;2023-03-01T05:42:03;5.00;;;2.30;;
10831;SDS011;5469;48.574;8.768;2023-03-01T05:44:40;2.53;;;1.60;;
10831;SDS011;5469;48.574;8.768;2023-03-01T05:47:15;2.67;;;1.90;;
10831;SDS011;5469;48.574;8.768;2023-03-01T05:49:50;1.03;;;1.03;;
10831;SDS011;5469;48.574;8.768;2023-03-01T05:52:26;2.73;;;1.80;;
10831;SDS011;5469;48.574;8.768;2023-03-01T05:55:03;1.23;;;1.13;;
10831;SDS011;5469;48.574;8.768;2023-03-01T05:57:39;2.63;;;1.30;;
10831;SDS011;5469;48.574;8.768;2023-03-01T06:00:15;1.83;;;1.57;;
10831;SDS011;5469;48.574;8.768;2023-03-01T06:02:50;1.87;;;1.77;;
10831;SDS011;5469;48.574;8.768;2023-03-01T06:05:26;3.17;;;2.77;;
10831;SDS011;5469;48.574;8.768;2023-03-01T06:08:02;3.10;;;2.37;;
10831;SDS011;5469;48.574;8.768;2023-03-01T06:10:39;3.30;;;2.10;;
10831;SDS011;5469;48.574;8.768;2023-03-01T06:13:14;3.17;;;2.87;;
10831;SDS011;5469;48.574;8.768;2023-03-01T06:15:49;2.03;;;1.50;;
10831;SDS011;5469;48.574;8.768;2023-03-01T06:18:24;4.73;;;1.57;;
10831;SDS011;5469;48.574;8.768;2023-03-01T06:20:59;3.53;;;1.17;;
10831;SDS011;5469;48.574;8.768;2023-03-01T06:23:36;4.10;;;2.47;;
10831;SDS011;5469;48.574;8.768;2023-03-01T06:26:13;3.03;;;1.70;;
10831;SDS011;5469;48.574;8.768;2023-03-01T06:28:48;2.97;;;1.80;;
10831;SDS011;5469;48.574;8.768;2023-03-01T06:31:24;1.30;;;1.20;;
10831;SDS011;5469;48.574;8.768;2023-03-01T06:33:59;2.30;;;2.20;;
10831;SDS011;5469;48.574;8.768;2023-03-01T06:36:35;3.47;;;3.17;;
10831;SDS011;5469;48.574;8.768;2023-03-01T06:39:10;4.37;;;2.53;;
10831;SDS011;5469;48.574;8.768;2023-03-01T06:41:46;2.00;;;1.90;;
10831;SDS011;5469;48.574;8.768;2023-03-01T06:44:21;1.67;;;1.57;;
10831;SDS011;5469;48.574;8.768;2023-03-01T06:46:56;1.80;;;1.47;;
10831;SDS011;5469;48.574;8.768;2023-03-01T06:49:31;2.73;;;2.13;;
10831;SDS011;5469;48.574;8.768;2023-03-01T06:52:06;4.93;;;2.27;;
10831;SDS011;5469;48.574;8.768;2023-03-01T06:54:41;2.27;;;2.00;;
10831;SDS011;5469;48.574;8.768;2023-03-01T06:57:18;3.23;;;2.43;;
10831;SDS011;5469;48.574;8.768;2023-03-01T06:59:53;2.93;;;2.43;;
10831;SDS011;5469;48.574;8.768;2023-03-01T07:02:30;3.63;;;1.93;;
10831;SDS011;5469;48.574;8.768;2023-03-01T07:05:05;2.07;;;1.73;;
10831;SDS011;5469;48.574;8.768;2023-03-01T07:07:41;4.60;;;2.37;;
10831;SDS011;5469;48.574;8.768;2023-03-01T07:10:16;6.33;;;2.20;;
10831;SDS011;5469;48.574;8.768;2023-03-01T07:12:55;4.53;;;2.87;;
10831;SDS011;5469;48.574;8.768;2023-03-01T07:15:32;5.60;;;1.63;;
10831;SDS011;5469;48.574;8.768;2023-03-01T07:18:08;2.60;;;1.33;;
10831;SDS011;5469;48.574;8.768;2023-03-01T07:20:44;1.53;;;1.40;;
10831;SDS011;5469;48.574;8.768;2023-03-01T07:23:19;1.73;;;1.07;;
10831;SDS011;5469;48.574;8.768;2023-03-01T07:25:54;2.83;;;2.30;;
10831;SDS011;5469;48.574;8.768;2023-03-01T07:28:30;1.80;;;1.23;;
10831;SDS011;5469;48.574;8.768;2023-03-01T07:31:07;6.67;;;3.67;;
10831;SDS011;5469;48.574;8.768;2023-03-01T07:33:42;5.80;;;3.43;;
10831;SDS011;5469;48.574;8.768;2023-03-01T07:36:18;2.63;;;1.33;;
10831;SDS011;5469;48.574;8.768;2023-03-01T07:38:53;3.53;;;2.00;;
10831;SDS011;5469;48.574;8.768;2023-03-01T07:41:29;3.13;;;2.27;;
10831;SDS011;5469;48.574;8.768;2023-03-01T07:44:05;2.17;;;0.90;;
10831;SDS011;5469;48.574;8.768;2023-03-01T07:46:40;5.63;;;1.80;;
10831;SDS011;5469;48.574;8.768;2023-03-01T07:49:15;3.50;;;1.57;;
10831;SDS011;5469;48.574;8.768;2023-03-01T07:51:50;2.30;;;2.10;;
10831;SDS011;5469;48.574;8.768;2023-03-01T07:54:25;1.97;;;1.87;;
10831;SDS011;5469;48.574;8.768;2023-03-01T07:57:00;3.30;;;2.00;;
10831;SDS011;5469;48.574;8.768;2023-03-01T07:59:36;3.17;;;2.27;;
10831;SDS011;5469;48.574;8.768;2023-03-01T08:02:11;1.93;;;1.23;;
10831;SDS011;5469;48.574;8.768;2023-03-01T08:04:47;1.30;;;1.10;;
10831;SDS011;5469;48.574;8.768;2023-03-01T08:07:22;4.43;;;2.50;;
10831;SDS011;5469;48.574;8.768;2023-03-01T08:09:58;1.67;;;1.57;;
10831;SDS011;5469;48.574;8.768;2023-03-01T08:12:33;4.83;;;2.37;;
10831;SDS011;5469;48.574;8.768;2023-03-01T08:15:10;2.00;;;1.73;;
10831;SDS011;5469;48.574;8.768;2023-03-01T08:17:45;3.47;;;1.77;;
10831;SDS011;5469;48.574;8.768;2023-03-01T08:20:21;2.10;;;1.90;;
10831;SDS011;5469;48.574;8.768;2023-03-01T08:22:57;4.40;;;4.00;;
10831;SDS011;5469;48.574;8.768;2023-03-01T08:25:33;1.40;;;1.30;;
10831;SDS011;5469;48.574;8.768;2023-03-01T08:28:09;4.07;;;2.23;;
10831;SDS011;5469;48.574;8.768;2023-03-01T08:30:45;3.30;;;2.60;;
10831;SDS011;5469;48.574;8.768;2023-03-01T08:33:20;5.03;;;1.80;;
10831;SDS011;5469;48.574;8.768;2023-03-01T08:36:02;2.93;;;2.50;;
10831;SDS011;5469;48.574;8.768;2023-03-01T08:38:38;5.13;;;1.67;;
10831;SDS011;5469;48.574;8.768;2023-03-01T08:41:13;7.13;;;2.27;;
10831;SDS011;5469;48.574;8.768;2023-03-01T08:43:49;2.93;;;1.73;;
10831;SDS011;5469;48.574;8.768;2023-03-01T08:46:32;2.33;;;1.37;;
10831;SDS011;5469;48.574;8.768;2023-03-01T08:49:09;5.87;;;1.63;;
10831;SDS011;5469;48.574;8.768;2023-03-01T08:51:48;1.43;;;1.20;;
10831;SDS011;5469;48.574;8.768;2023-03-01T08:54:23;3.70;;;2.60;;
10831;SDS011;5469;48.574;8.768;2023-03-01T08:57:01;2.77;;;1.87;;
10831;SDS011;5469;48.574;8.768;2023-03-01T08:59:36;2.27;;;1.57;;
10831;SDS011;5469;48.574;8.768;2023-03-01T09:02:16;1.20;;;1.10;;
10831;SDS011;5469;48.574;8.768;2023-03-01T09:04:52;2.63;;;1.27;;
10831;SDS011;5469;48.574;8.768;2023-03-01T09:07:27;2.20;;;1.83;;
10831;SDS011;5469;48.574;8.768;2023-03-01T09:10:02;2.43;;;2.20;;
10831;SDS011;5469;48.574;8.768;2023-03-01T09:12:38;3.10;;;1.87;;
10831;SDS011;5469;48.574;8.768;2023-03-01T09:15:13;2.20;;;2.10;;
10831;SDS011;5469;48.574;8.768;2023-03-01T09:17:50;3.50;;;2.40;;
10831;SDS011;5469;48.574;8.768;2023-03-01T09:20:25;1.70;;;1.60;;
10831;SDS011;5469;48.574;8.768;2023-03-01T09:23:00;2.43;;;1.77;;
10831;SDS011;5469;48.574;8.768;2023-03-01T09:25:36;3.80;;;2.73;;
10831;SDS011;5469;48.574;8.768;2023-03-01T09:28:11;3.43;;;1.27;;
10831;SDS011;5469;48.574;8.768;2023-03-01T09:30:46;4.03;;;2.40;;
10831;SDS011;5469;48.574;8.768;2023-03-01T09:33:22;4.47;;;2.37;;
10831;SDS011;5469;48.574;8.768;2023-03-01T09:35:57;3.30;;;1.23;;
10831;SDS011;5469;48.574;8.768;2023-03-01T09:38:32;2.03;;;1.13;;
10831;SDS011;5469;48.574;8.768;2023-03-01T09:41:11;3.80;;;2.00;;
10831;SDS011;5469;48.574;8.768;2023-03-01T09:44:03;4.93;;;2.93;;
10831;SDS011;5469;48.574;8.768;2023-03-01T09:46:44;4.20;;;1.43;;
10831;SDS011;5469;48.574;8.768;2023-03-01T09:49:22;4.20;;;2.57;;
10831;SDS011;5469;48.574;8.768;2023-03-01T09:51:59;4.37;;;1.93;;
10831;SDS011;5469;48.574;8.768;2023-03-01T09:54:44;2.30;;;1.53;;
10831;SDS011;5469;48.574;8.768;2023-03-01T09:57:30;2.07;;;1.93;;
10831;SDS011;5469;48.574;8.768;2023-03-01T10:03:12;6.10;;;1.60;;
10831;SDS011;5469;48.574;8.768;2023-03-01T10:05:54;1.97;;;1.87;;
10831;SDS011;5469;48.574;8.768;2023-03-01T10:08:36;11.30;;;2.97;;
10831;SDS011;5469;48.574;8.768;2023-03-01T10:11:17;9.40;;;2.57;;
10831;SDS011;5469;48.574;8.768;2023-03-01T10:13:58;3.53;;;2.60;;
10831;SDS011;5469;48.574;8.768;2023-03-01T10:16:39;6.40;;;2.70;;
10831;SDS011;5469;48.574;8.768;2023-03-01T10:19:21;2.83;;;2.20;;
10831;SDS011;5469;48.574;8.768;2023-03-01T10:22:05;2.73;;;2.50;;
10831;SDS011;5469;48.574;8.768;2023-03-01T10:24:46;2.13;;;1.47;;
10831;SDS011;5469;48.574;8.768;2023-03-01T10:27:23;2.67;;;1.87;;
10831;SDS011;5469;48.574;8.768;2023-03-01T10:30:02;3.00;;;1.73;;
10831;SDS011;5469;48.574;8.768;2023-03-01T10:32:48;1.63;;;1.03;;
10831;SDS011;5469;48.574;8.768;2023-03-01T10:35:27;6.87;;;1.87;;
10831;SDS011;5469;48.574;8.768;2023-03-01T10:38:07;4.50;;;2.67;;
10831;SDS011;5469;48.574;8.768;2023-03-01T10:40:50;5.43;;;2.07;;
10831;SDS011;5469;48.574;8.768;2023-03-01T10:43:30;1.70;;;1.40;;
10831;SDS011;5469;48.574;8.768;2023-03-01T10:46:21;3.33;;;2.30;;
10831;SDS011;5469;48.574;8.768;2023-03-01T10:49:05;10.13;;;2.53;;
10831;SDS011;5469;48.574;8.768;2023-03-01T10:51:44;5.63;;;1.93;;
10831;SDS011;5469;48.574;8.768;2023-03-01T10:54:23;2.70;;;2.50;;
10831;SDS011;5469;48.574;8.768;2023-03-01T10:57:02;4.33;;;2.67;;
10831;SDS011;5469;48.574;8.768;2023-03-01T10:59:38;4.83;;;2.07;;
10831;SDS011;5469;48.574;8.768;2023-03-01T11:02:17;4.33;;;2.57;;
10831;SDS011;5469;48.574;8.768;2023-03-01T11:04:58;3.87;;;2.27;;
10831;SDS011;5469;48.574;8.768;2023-03-01T11:07:47;9.37;;;3.27;;
10831;SDS011;5469;48.574;8.768;2023-03-01T11:10:25;2.30;;;1.83;;
10831;SDS011;5469;48.574;8.768;2023-03-01T11:13:07;2.90;;;1.70;;
10831;SDS011;5469;48.574;8.768;2023-03-01T11:15:58;3.07;;;1.87;;
10831;SDS011;5469;48.574;8.768;2023-03-01T11:18:34;5.63;;;2.60;;
10831;SDS011;5469;48.574;8.768;2023-03-01T11:21:09;4.63;;;2.87;;
10831;SDS011;5469;48.574;8.768;2023-03-01T11:23:45;7.17;;;3.13;;
10831;SDS011;5469;48.574;8.768;2023-03-01T11:26:23;2.73;;;2.10;;
10831;SDS011;5469;48.574;8.768;2023-03-01T11:28:58;6.80;;;3.87;;
10831;SDS011;5469;48.574;8.768;2023-03-01T11:31:37;7.00;;;3.30;;
10831;SDS011;5469;48.574;8.768;2023-03-01T11:34:16;7.43;;;3.23;;
10831;SDS011;5469;48.574;8.768;2023-03-01T11:36:58;5.73;;;2.50;;
10831;SDS011;5469;48.574;8.768;2023-03-01T11:39:37;5.37;;;3.03;;
10831;SDS011;5469;48.574;8.768;2023-03-01T11:42:19;3.83;;;3.07;;
10831;SDS011;5469;48.574;8.768;2023-03-01T11:44:58;7.63;;;3.97;;
10831;SDS011;5469;48.574;8.768;2023-03-01T11:47:50;6.43;;;3.63;;
10831;SDS011;5469;48.574;8.768;2023-03-01T11:50:35;4.80;;;3.13;;
10831;SDS011;5469;48.574;8.768;2023-03-01T11:56:22;2.87;;;2.43;;
10831;SDS011;5469;48.574;8.768;2023-03-01T11:59:13;4.40;;;2.97;;
10831;SDS011;5469;48.574;8.768;2023-03-01T12:02:14;6.13;;;3.60;;
10831;SDS011;5469;48.574;8.768;2023-03-01T12:05:10;3.80;;;2.90;;
10831;SDS011;5469;48.574;8.768;2023-03-01T12:07:59;10.50;;;3.77;;
10831;SDS011;5469;48.574;8.768;2023-03-01T12:10:42;4.87;;;3.00;;
10831;SDS011;5469;48.574;8.768;2023-03-01T12:16:50;5.30;;;2.50;;
10831;SDS011;5469;48.574;8.768;2023-03-01T12:19:44;5.13;;;3.03;;
10831;SDS011;5469;48.574;8.768;2023-03-01T12:22:35;6.07;;;3.73;;
10831;SDS011;5469;48.574;8.768;2023-03-01T12:25:25;6.37;;;3.97;;
10831;SDS011;5469;48.574;8.768;2023-03-01T12:28:22;6.70;;;3.47;;
10831;SDS011;5469;48.574;8.768;2023-03-01T12:31:31;10.23;;;4.10;;
10831;SDS011;5469;48.574;8.768;2023-03-01T12:34:20;4.90;;;3.53;;
10831;SDS011;5469;48.574;8.768;2023-03-01T12:37:11;5.83;;;3.43;;
10831;SDS011;5469;48.574;8.768;2023-03-01T12:40:13;6.13;;;3.97;;
10831;SDS011;5469;48.574;8.768;2023-03-01T12:42:58;6.73;;;4.40;;
10831;SDS011;5469;48.574;8.768;2023-03-01T12:45:46;4.23;;;3.50;;
10831;SDS011;5469;48.574;8.768;2023-03-01T12:48:30;6.23;;;4.07;;
10831;SDS011;5469;48.574;8.768;2023-03-01T12:51:14;8.23;;;4.00;;
10831;SDS011;5469;48.574;8.768;2023-03-01T12:53:53;7.87;;;4.50;;
10831;SDS011;5469;48.574;8.768;2023-03-01T12:56:31;6.13;;;4.00;;
10831;SDS011;5469;48.574;8.768;2023-03-01T12:59:11;6.67;;;4.00;;
10831;SDS011;5469;48.574;8.768;2023-03-01T13:01:53;11.00;;;4.43;;
10831;SDS011;5469;48.574;8.768;2023-03-01T13:04:45;6.60;;;3.80;;
10831;SDS011;5469;48.574;8.768;2023-03-01T13:07:34;5.10;;;3.63;;
10831;SDS011;5469;48.574;8.768;2023-03-01T13:10:19;6.07;;;3.97;;
10831;SDS011;5469;48.574;8.768;2023-03-01T13:13:08;8.30;;;4.10;;
10831;SDS011;5469;48.574;8.768;2023-03-01T13:15:51;9.57;;;4.87;;
10831;SDS011;5469;48.574;8.768;2023-03-01T13:18:28;5.43;;;4.13;;
10831;SDS011;5469;48.574;8.768;2023-03-01T13:21:05;5.90;;;3.73;;
10831;SDS011;5469;48.574;8.768;2023-03-01T13:23:43;10.60;;;4.77;;
10831;SDS011;5469;48.574;8.768;2023-03-01T13:26:23;7.27;;;4.37;;
10831;SDS011;5469;48.574;8.768;2023-03-01T13:28:58;6.67;;;4.43;;
10831;SDS011;5469;48.574;8.768;2023-03-01T13:34:45;8.20;;;4.93;;
10831;SDS011;5469;48.574;8.768;2023-03-01T13:37:23;11.30;;;4.50;;
10831;SDS011;5469;48.574;8.768;2023-03-01T13:43:26;6.77;;;4.30;;
10831;SDS011;5469;48.574;8.768;2023-03-01T13:46:02;6.87;;;4.10;;
10831;SDS011;5469;48.574;8.768;2023-03-01T13:48:45;7.10;;;4.00;;
10831;SDS011;5469;48.574;8.768;2023-03-01T13:51:25;8.17;;;4.10;;
10831;SDS011;5469;48.574;8.768;2023-03-01T13:54:00;5.63;;;4.70;;
10831;SDS011;5469;48.574;8.768;2023-03-01T13:56:37;6.10;;;3.90;;
10831;SDS011;5469;48.574;8.768;2023-03-01T13:59:14;5.47;;;4.30;;
10831;SDS011;5469;48.574;8.768;2023-03-01T14:01:52;7.93;;;4.57;;
10831;SDS011;5469;48.574;8.768;2023-03-01T14:04:28;7.70;;;3.90;;
10831;SDS011;5469;48.574;8.768;2023-03-01T14:07:11;5.83;;;4.17;;
10831;SDS011;5469;48.574;8.768;2023-03-01T14:09:52;7.83;;;4.03;;
10831;SDS011;5469;48.574;8.768;2023-03-01T14:12:39;11.90;;;4.47;;
10831;SDS011;5469;48.574;8.768;2023-03-01T14:15:26;6.20;;;4.20;;
10831;SDS011;5469;48.574;8.768;2023-03-01T14:18:07;6.37;;;4.27;;
10831;SDS011;5469;48.574;8.768;2023-03-01T14:20:47;8.07;;;4.40;;
10831;SDS011;5469;48.574;8.768;2023-03-01T14:23:24;5.23;;;3.80;;
10831;SDS011;5469;48.574;8.768;2023-03-01T14:26:01;7.53;;;4.77;;
10831;SDS011;5469;48.574;8.768;2023-03-01T14:28:37;4.87;;;4.13;;
10831;SDS011;5469;48.574;8.768;2023-03-01T14:31:34;4.70;;;3.73;;
10831;SDS011;5469;48.574;8.768;2023-03-01T14:34:17;4.77;;;3.60;;
10831;SDS011;5469;48.574;8.768;2023-03-01T14:36:56;5.70;;;4.03;;
10831;SDS011;5469;48.574;8.768;2023-03-01T14:39:42;7.70;;;4.77;;
10831;SDS011;5469;48.574;8.768;2023-03-01T14:42:18;6.00;;;5.07;;
10831;SDS011;5469;48.574;8.768;2023-03-01T14:44:57;6.87;;;4.37;;
10831;SDS011;5469;48.574;8.768;2023-03-01T14:47:36;5.30;;;3.40;;
10831;SDS011;5469;48.574;8.768;2023-03-01T14:50:16;5.93;;;4.40;;
10831;SDS011;5469;48.574;8.768;2023-03-01T14:52:55;8.03;;;5.03;;
10831;SDS011;5469;48.574;8.768;2023-03-01T14:55:34;7.00;;;4.87;;
10831;SDS011;5469;48.574;8.768;2023-03-01T14:58:12;6.30;;;4.37;;
10831;SDS011;5469;48.574;8.768;2023-03-01T15:00:52;8.13;;;4.30;;
10831;SDS011;5469;48.574;8.768;2023-03-01T15:03:33;5.43;;;3.83;;
10831;SDS011;5469;48.574;8.768;2023-03-01T15:06:11;5.53;;;3.83;;
10831;SDS011;5469;48.574;8.768;2023-03-01T15:08:49;7.93;;;4.43;;
10831;SDS011;5469;48.574;8.768;2023-03-01T15:11:29;6.10;;;4.63;;
10831;SDS011;5469;48.574;8.768;2023-03-01T15:17:01;5.30;;;4.37;;
10831;SDS011;5469;48.574;8.768;2023-03-01T15:19:38;8.03;;;4.80;;
10831;SDS011;5469;48.574;8.768;2023-03-01T15:22:19;6.47;;;4.67;;
10831;SDS011;5469;48.574;8.768;2023-03-01T15:24:57;7.50;;;5.10;;
10831;SDS011;5469;48.574;8.768;2023-03-01T15:27:34;6.60;;;4.57;;
10831;SDS011;5469;48.574;8.768;2023-03-01T15:30:14;9.03;;;5.40;;
10831;SDS011;5469;48.574;8.768;2023-03-01T15:35:54;5.73;;;4.17;;
10831;SDS011;5469;48.574;8.768;2023-03-01T15:38:34;9.03;;;5.30;;
10831;SDS011;5469;48.574;8.768;2023-03-01T15:41:24;6.67;;;4.17;;
10831;SDS011;5469;48.574;8.768;2023-03-01T15:44:13;5.77;;;4.70;;
10831;SDS011;5469;48.574;8.768;2023-03-01T15:46:48;9.97;;;5.03;;
10831;SDS011;5469;48.574;8.768;2023-03-01T15:49:26;7.90;;;4.30;;
10831;SDS011;5469;48.574;8.768;2023-03-01T15:52:09;10.10;;;4.73;;
10831;SDS011;5469;48.574;8.768;2023-03-01T15:55:01;4.50;;;3.93;;
10831;SDS011;5469;48.574;8.768;2023-03-01T15:57:38;5.90;;;4.10;;
10831;SDS011;5469;48.574;8.768;2023-03-01T16:00:14;8.17;;;4.47;;
10831;SDS011;5469;48.574;8.768;2023-03-01T16:02:52;6.90;;;4.53;;
10831;SDS011;5469;48.574;8.768;2023-03-01T16:05:27;7.40;;;4.73;;
10831;SDS011;5469;48.574;8.768;2023-03-01T16:08:09;9.57;;;4.90;;
10831;SDS011;5469;48.574;8.768;2023-03-01T16:10:44;10.93;;;4.70;;
10831;SDS011;5469;48.574;8.768;2023-03-01T16:13:22;6.93;;;4.93;;
10831;SDS011;5469;48.574;8.768;2023-03-01T16:15:58;6.23;;;4.27;;
10831;SDS011;5469;48.574;8.768;2023-03-01T16:18:33;7.33;;;4.40;;
10831;SDS011;5469;48.574;8.768;2023-03-01T16:21:10;6.13;;;4.77;;
10831;SDS011;5469;48.574;8.768;2023-03-01T16:23:49;7.30;;;4.27;;
10831;SDS011;5469;48.574;8.768;2023-03-01T16:26:25;5.67;;;3.67;;
10831;SDS011;5469;48.574;8.768;2023-03-01T16:29:01;8.00;;;4.83;;
10831;SDS011;5469;48.574;8.768;2023-03-01T16:31:37;6.67;;;4.33;;
10831;SDS011;5469;48.574;8.768;2023-03-01T16:34:16;8.20;;;5.03;;
10831;SDS011;5469;48.574;8.768;2023-03-01T16:36:55;8.87;;;5.13;;